DW7431 Cala Millor ES current weather conditions

sailwx.info

Wind from 045 at 2 knots gusting 4

Air temperature 19.4° C
Dewpoint 16.9° C

Last reported at 2016-Sep-26 05:01 UTC.
Time now 2016-Sep-26 07:03 UTC

Location: N 39°36' E 003°22'.
View on Google Maps.

See reports from other nearby stations

  
Tides and Currents Weather Stations Pressure Air Temp Water Temp Dewpoint Dewpoint Depression Visibility Wind Speed Wind Dir Waves Ship Positions
date/time (UTC)wind fromknots sea level pressurealtimeterstation pressurevisibilityair tempwater tempwave heightnotes
2016-Sep-26 05:01 045 2 gusting 4 19.4
2016-Sep-26 03:01 337 19.4
2016-Sep-26 02:01 180 19.4
2016-Sep-26 01:00 315 1 20.0
2016-Sep-25 23:00 022 1 gusting 1 21.1
2016-Sep-25 22:01 022 1 gusting 3 21.7
2016-Sep-25 21:00 022 4 gusting 6 22.2
2016-Sep-25 20:00 337 2 gusting 1 22.8
2016-Sep-25 19:00 337 1 gusting 1 23.3
2016-Sep-25 18:00 022 1 gusting 2 24.4
2016-Sep-25 17:00 045 1 gusting 2 25.6
2016-Sep-25 16:00 090 5 gusting 5 24.4
2016-Sep-25 14:00 112 5 gusting 6 28.3
2016-Sep-25 12:00 112 5 gusting 9 26.7
2016-Sep-25 11:00 112 6 gusting 8 26.7
2016-Sep-25 10:00 112 3 gusting 5 26.7
2016-Sep-25 08:00 022 1 gusting 2 22.8
2016-Sep-25 07:00 022 2 gusting 7 20.6
2016-Sep-25 06:00 067 18.3
2016-Sep-25 03:00 022 2 gusting 2 18.9
2016-Sep-25 02:00 022 1 gusting 1 19.4
2016-Sep-25 00:00 045 2 gusting 2 19.4
2016-Sep-24 19:00 022 3 gusting 5 18.3
2016-Sep-24 14:00 045 5 gusting 6 21.7
2016-Sep-24 13:00 022 6 gusting 14 22.8
2016-Sep-24 08:00 067 2 gusting 2 21.7
2016-Sep-24 07:01 090 1 gusting 1 21.1